createdAt,value
2023-04-30T00:00:32.140Z,12.51
2023-04-30T00:02:59.734Z,12.45
2023-04-30T00:05:27.357Z,12.41
2023-04-30T00:07:54.925Z,12.45
2023-04-30T00:10:22.465Z,12.47
2023-04-30T00:12:49.937Z,12.41
2023-04-30T00:15:18.959Z,12.41
2023-04-30T00:17:46.690Z,12.45
2023-04-30T00:20:14.526Z,12.43
2023-04-30T00:25:18.257Z,12.32
2023-04-30T00:30:23.406Z,12.26
2023-04-30T00:32:51.764Z,12.27
2023-04-30T00:38:02.006Z,12.26
2023-04-30T00:45:56.529Z,12.27
2023-04-30T00:48:26.296Z,12.28
2023-04-30T00:50:55.027Z,12.31
2023-04-30T00:53:23.410Z,12.27
2023-04-30T00:55:52.312Z,12.26
2023-04-30T01:03:46.771Z,12.18
2023-04-30T01:08:56.690Z,12.18
2023-04-30T01:16:48.135Z,12.05
2023-04-30T01:22:02.527Z,11.94
2023-04-30T01:24:52.272Z,11.90
2023-04-30T01:29:58.899Z,11.84
2023-04-30T01:32:27.602Z,11.85
2023-04-30T01:40:26.789Z,11.83
2023-04-30T01:43:07.291Z,11.86
2023-04-30T01:48:45.486Z,11.85
2023-04-30T01:53:49.268Z,11.92
2023-04-30T01:59:05.598Z,11.86
2023-04-30T02:01:36.133Z,11.80
2023-04-30T02:04:05.301Z,11.77
2023-04-30T02:09:11.113Z,11.77
2023-04-30T02:16:58.000Z,11.62
2023-04-30T02:27:34.574Z,11.85
2023-04-30T02:32:46.708Z,11.92
2023-04-30T02:43:20.216Z,11.79
2023-04-30T02:51:07.778Z,11.65
2023-04-30T02:53:36.399Z,11.60
2023-04-30T02:56:05.017Z,11.53
2023-04-30T03:03:58.521Z,11.55
2023-04-30T03:06:28.548Z,11.60
2023-04-30T03:08:57.309Z,11.66
2023-04-30T03:11:26.012Z,11.68
2023-04-30T03:13:54.695Z,11.66
2023-04-30T03:19:00.254Z,11.68
2023-04-30T03:21:30.406Z,11.61
2023-04-30T03:23:58.805Z,11.52
2023-04-30T03:29:03.055Z,11.49
2023-04-30T03:31:31.819Z,11.48
2023-04-30T03:34:00.983Z,11.51
2023-04-30T03:39:00.575Z,11.59
2023-04-30T03:41:29.194Z,11.56
2023-04-30T03:43:57.599Z,11.50
2023-04-30T03:46:26.312Z,11.44
2023-04-30T03:48:54.720Z,11.43
2023-04-30T03:54:08.918Z,11.37
2023-04-30T03:56:38.074Z,11.32
2023-04-30T03:59:07.452Z,11.25
2023-04-30T04:04:11.339Z,11.20
2023-04-30T04:06:40.090Z,11.16
2023-04-30T04:09:10.124Z,11.09
2023-04-30T04:14:13.712Z,11.06
2023-04-30T04:16:42.487Z,11.05
2023-04-30T04:19:11.360Z,11.04
2023-04-30T04:21:39.519Z,11.01
2023-04-30T04:24:10.389Z,10.97
2023-04-30T04:26:38.976Z,10.94
2023-04-30T04:29:08.960Z,10.90
2023-04-30T04:31:38.326Z,10.87
2023-04-30T04:36:41.862Z,10.80
2023-04-30T04:39:12.064Z,10.79
2023-04-30T04:41:40.243Z,10.77
2023-04-30T04:44:08.681Z,10.76
2023-04-30T04:46:38.872Z,10.74
2023-04-30T04:49:07.504Z,10.72
2023-04-30T04:51:35.974Z,10.71
2023-04-30T04:54:04.642Z,10.70
2023-04-30T04:56:34.631Z,10.71
2023-04-30T04:59:02.885Z,10.69
2023-04-30T05:04:06.903Z,10.70
2023-04-30T05:06:35.080Z,10.71
2023-04-30T05:09:03.559Z,10.71
2023-04-30T05:11:33.235Z,10.74
2023-04-30T05:14:01.526Z,10.73
2023-04-30T05:16:29.736Z,10.76
2023-04-30T05:18:58.068Z,10.80
2023-04-30T05:21:29.792Z,10.80
2023-04-30T05:29:39.684Z,10.85
2023-04-30T05:32:08.694Z,10.87
2023-04-30T05:34:37.428Z,10.89
2023-04-30T05:37:05.777Z,10.92
2023-04-30T05:39:34.218Z,10.95
2023-04-30T05:42:03.591Z,10.97
2023-04-30T05:44:32.094Z,10.98
2023-04-30T05:47:01.823Z,10.97
2023-04-30T05:49:31.970Z,10.99
2023-04-30T05:52:01.955Z,11.00
2023-04-30T05:54:30.380Z,11.04
2023-04-30T05:56:58.905Z,11.05
2023-04-30T05:59:27.313Z,11.08
2023-04-30T06:01:55.902Z,11.12
2023-04-30T06:04:27.451Z,11.17
2023-04-30T06:06:56.122Z,11.18
2023-04-30T06:09:24.889Z,11.21
2023-04-30T06:11:53.228Z,11.25
2023-04-30T06:14:23.151Z,11.27
2023-04-30T06:16:51.672Z,11.30
2023-04-30T06:19:21.149Z,11.34
2023-04-30T06:21:53.592Z,11.38
2023-04-30T06:24:21.721Z,11.41
2023-04-30T06:26:49.951Z,11.45
2023-04-30T06:29:18.424Z,11.48
2023-04-30T06:31:46.840Z,11.52
2023-04-30T06:34:16.768Z,11.60
2023-04-30T06:36:45.112Z,11.68
2023-04-30T06:39:17.998Z,11.75
2023-04-30T06:44:27.839Z,11.90
2023-04-30T06:46:57.347Z,11.98
2023-04-30T06:49:26.962Z,12.06
2023-04-30T06:51:56.307Z,12.14
2023-04-30T06:54:26.886Z,12.21
2023-04-30T06:59:36.524Z,12.39
2023-04-30T07:02:05.500Z,12.48
2023-04-30T07:17:58.462Z,12.98
2023-04-30T07:20:27.020Z,13.05
2023-04-30T07:22:54.777Z,13.12
2023-04-30T07:25:23.437Z,13.26
2023-04-30T07:27:54.585Z,13.40
2023-04-30T07:30:25.123Z,13.49
2023-04-30T07:32:54.044Z,13.58
2023-04-30T07:35:24.353Z,13.66
2023-04-30T07:37:53.141Z,13.74
2023-04-30T07:40:29.163Z,13.84
2023-04-30T07:43:05.283Z,13.96
2023-04-30T07:45:35.244Z,14.05
2023-04-30T07:50:52.131Z,14.14
2023-04-30T07:53:22.089Z,14.24
2023-04-30T07:55:55.214Z,14.36
2023-04-30T07:58:25.329Z,14.45
2023-04-30T08:03:22.434Z,14.42
2023-04-30T08:05:51.400Z,14.34
2023-04-30T08:08:18.913Z,14.28
2023-04-30T08:10:46.462Z,14.26
2023-04-30T08:13:13.980Z,14.29
2023-04-30T08:15:41.457Z,14.29
2023-04-30T08:18:09.058Z,14.30
2023-04-30T08:20:38.026Z,14.30
2023-04-30T08:23:07.598Z,14.30
2023-04-30T08:25:35.266Z,14.32
2023-04-30T08:28:02.773Z,14.38
2023-04-30T08:30:30.303Z,14.49
2023-04-30T08:32:58.017Z,14.58
2023-04-30T08:35:25.933Z,14.69
2023-04-30T08:37:54.086Z,14.79
2023-04-30T08:40:33.770Z,14.92
2023-04-30T08:43:11.633Z,14.94
2023-04-30T08:45:39.191Z,14.90
2023-04-30T08:48:12.337Z,14.82
2023-04-30T08:50:39.966Z,14.73
2023-04-30T08:53:09.196Z,14.64
2023-04-30T08:55:41.162Z,14.60
2023-04-30T08:58:10.377Z,14.58
2023-04-30T09:00:39.674Z,14.61
2023-04-30T09:03:08.623Z,14.60
2023-04-30T09:05:37.898Z,14.61
2023-04-30T09:08:06.078Z,14.60
2023-04-30T09:10:34.077Z,14.62
2023-04-30T09:13:04.401Z,14.63
2023-04-30T09:15:33.065Z,14.62
2023-04-30T09:18:12.624Z,14.65
2023-04-30T09:20:55.762Z,14.70
2023-04-30T09:23:23.657Z,14.73
2023-04-30T09:25:51.795Z,14.76
2023-04-30T09:28:23.783Z,14.76
2023-04-30T09:30:52.758Z,14.78
2023-04-30T09:33:20.712Z,14.80
2023-04-30T09:35:48.870Z,14.82
2023-04-30T09:38:30.389Z,14.95
2023-04-30T09:40:59.898Z,15.03
2023-04-30T09:43:29.066Z,15.08
2023-04-30T09:45:59.270Z,15.11
2023-04-30T09:48:28.252Z,15.13
2023-04-30T09:50:56.057Z,15.15
2023-04-30T09:53:24.256Z,15.24
2023-04-30T09:55:52.587Z,15.41
2023-04-30T09:58:20.772Z,15.62
2023-04-30T10:00:54.190Z,15.74
2023-04-30T10:03:23.881Z,15.84
2023-04-30T10:05:53.080Z,15.96
2023-04-30T10:08:28.059Z,15.99
2023-04-30T10:11:00.557Z,15.93
2023-04-30T10:13:31.320Z,15.86
2023-04-30T10:16:05.419Z,15.73
2023-04-30T10:18:36.057Z,15.62
2023-04-30T10:21:10.054Z,15.59
2023-04-30T10:23:38.043Z,15.59
2023-04-30T10:26:05.769Z,15.63
2023-04-30T10:28:33.894Z,15.65
2023-04-30T10:31:03.253Z,15.63
2023-04-30T10:33:39.052Z,15.61
2023-04-30T10:36:09.174Z,15.57
2023-04-30T10:38:38.833Z,15.58
2023-04-30T10:41:09.562Z,15.60
2023-04-30T10:43:37.823Z,15.63
2023-04-30T10:46:06.816Z,15.62
2023-04-30T10:48:35.954Z,15.68
2023-04-30T10:51:03.734Z,15.66
2023-04-30T10:53:32.701Z,15.60
2023-04-30T10:56:06.508Z,15.54
2023-04-30T10:58:35.702Z,15.51
2023-04-30T11:01:08.450Z,15.50
2023-04-30T11:03:37.264Z,15.51
2023-04-30T11:06:13.353Z,15.53
2023-04-30T11:08:45.518Z,15.52
2023-04-30T11:11:18.360Z,15.50
2023-04-30T11:13:47.787Z,15.51
2023-04-30T11:16:20.085Z,15.57
2023-04-30T11:18:48.369Z,15.66
2023-04-30T11:21:15.872Z,15.76
2023-04-30T11:23:44.368Z,15.84
2023-04-30T11:26:12.195Z,15.94
2023-04-30T11:28:39.737Z,16.10
2023-04-30T11:31:07.310Z,16.25
2023-04-30T11:33:36.414Z,16.34
2023-04-30T11:36:04.132Z,16.42
2023-04-30T11:38:35.573Z,16.51
2023-04-30T11:41:03.311Z,16.60
2023-04-30T11:43:32.280Z,16.66
2023-04-30T11:46:08.905Z,16.65
2023-04-30T11:48:38.984Z,16.61
2023-04-30T11:51:15.181Z,16.58
2023-04-30T11:53:43.375Z,16.62
2023-04-30T11:56:10.926Z,16.66
2023-04-30T11:58:40.107Z,16.59
2023-04-30T12:01:09.489Z,16.51
2023-04-30T12:03:44.162Z,16.39
2023-04-30T12:06:13.009Z,16.37
2023-04-30T12:08:42.864Z,16.41
2023-04-30T12:11:21.707Z,16.43
2023-04-30T12:13:56.555Z,16.40
2023-04-30T12:16:25.785Z,16.35
2023-04-30T12:18:55.461Z,16.31
2023-04-30T12:21:23.703Z,16.23
2023-04-30T12:23:51.466Z,16.17
2023-04-30T12:26:18.963Z,16.14
2023-04-30T12:28:48.710Z,16.15
2023-04-30T12:31:18.565Z,16.20
2023-04-30T12:33:56.393Z,16.27
2023-04-30T12:36:30.072Z,16.36
2023-04-30T12:39:03.446Z,16.42
2023-04-30T12:41:31.068Z,16.48
2023-04-30T12:44:20.822Z,16.48
2023-04-30T12:46:49.199Z,16.42
2023-04-30T12:49:26.052Z,16.41
2023-04-30T12:51:57.665Z,16.44
2023-04-30T12:54:28.862Z,16.50
2023-04-30T12:57:01.169Z,16.55
2023-04-30T12:59:28.900Z,16.60
2023-04-30T13:01:56.622Z,16.61
2023-04-30T13:04:25.821Z,16.60
2023-04-30T13:06:53.524Z,16.59
2023-04-30T13:09:21.858Z,16.60
2023-04-30T13:11:50.776Z,16.66
2023-04-30T13:14:18.497Z,16.68
2023-04-30T13:16:46.158Z,16.72
2023-04-30T13:19:13.666Z,16.75
2023-04-30T13:21:42.576Z,16.79
2023-04-30T13:24:10.079Z,16.85
2023-04-30T13:26:37.617Z,16.90
2023-04-30T13:29:05.230Z,16.92
2023-04-30T13:31:33.094Z,16.89
2023-04-30T13:34:00.867Z,16.90
2023-04-30T13:36:29.246Z,16.94
2023-04-30T13:38:58.375Z,16.91
2023-04-30T13:41:26.867Z,16.84
2023-04-30T13:43:54.392Z,16.78
2023-04-30T13:46:22.002Z,16.77
2023-04-30T13:48:51.736Z,16.76
2023-04-30T13:51:19.301Z,16.76
2023-04-30T13:53:46.846Z,16.77
2023-04-30T13:56:16.331Z,16.75
2023-04-30T13:58:44.074Z,16.71
2023-04-30T14:01:12.004Z,16.71
2023-04-30T14:03:39.737Z,16.69
2023-04-30T14:06:07.529Z,16.66
2023-04-30T14:08:35.126Z,16.64
2023-04-30T14:11:02.698Z,16.66
2023-04-30T14:13:31.587Z,16.66
2023-04-30T14:15:59.142Z,16.62
2023-04-30T14:18:26.730Z,16.57
2023-04-30T14:20:54.285Z,16.57
2023-04-30T14:23:21.911Z,16.55
2023-04-30T14:25:49.541Z,16.51
2023-04-30T14:28:17.187Z,16.48
2023-04-30T14:30:46.130Z,16.43
2023-04-30T14:33:13.852Z,16.39
2023-04-30T14:35:41.523Z,16.39
2023-04-30T14:38:09.301Z,16.38
2023-04-30T14:40:36.832Z,16.37
2023-04-30T14:43:04.344Z,16.38
2023-04-30T14:45:33.679Z,16.42
2023-04-30T14:48:05.317Z,16.50
2023-04-30T14:50:33.396Z,16.56
2023-04-30T14:53:00.971Z,16.56
2023-04-30T14:55:28.896Z,16.56
2023-04-30T14:57:56.480Z,16.54
2023-04-30T15:00:24.079Z,16.53
2023-04-30T15:02:52.001Z,16.48
2023-04-30T15:05:21.137Z,16.45
2023-04-30T15:07:48.684Z,16.49
2023-04-30T15:10:16.561Z,16.52
2023-04-30T15:12:44.158Z,16.50
2023-04-30T15:15:12.888Z,16.47
2023-04-30T15:17:41.206Z,16.50
2023-04-30T15:20:09.614Z,16.52
2023-04-30T15:22:38.492Z,16.51
2023-04-30T15:25:07.027Z,16.52
2023-04-30T15:27:35.030Z,16.52
2023-04-30T15:30:02.583Z,16.54
2023-04-30T15:32:30.092Z,16.56
2023-04-30T15:34:57.665Z,16.55
2023-04-30T15:37:25.549Z,16.55
2023-04-30T15:39:54.622Z,16.60
2023-04-30T15:42:22.327Z,16.63
2023-04-30T15:44:49.867Z,16.64
2023-04-30T15:47:17.469Z,16.69
2023-04-30T15:49:45.021Z,16.69
2023-04-30T15:52:12.676Z,16.68
2023-04-30T15:54:40.234Z,16.65
2023-04-30T15:57:09.788Z,16.64
2023-04-30T15:59:37.325Z,16.60
2023-04-30T16:02:05.026Z,16.57
2023-04-30T16:04:32.648Z,16.56
2023-04-30T16:07:01.142Z,16.54
2023-04-30T16:09:28.773Z,16.52
2023-04-30T16:11:57.160Z,16.46
2023-04-30T16:14:26.155Z,16.42
2023-04-30T16:16:53.758Z,16.40
2023-04-30T16:19:21.538Z,16.37
2023-04-30T16:21:49.407Z,16.38
2023-04-30T16:24:16.957Z,16.38
2023-04-30T16:26:44.488Z,16.37
2023-04-30T16:29:12.037Z,16.37
2023-04-30T16:31:41.051Z,16.37
2023-04-30T16:34:11.907Z,16.34
2023-04-30T16:36:39.529Z,16.33
2023-04-30T16:39:07.117Z,16.34
2023-04-30T16:41:35.258Z,16.34
2023-04-30T16:44:02.869Z,16.33
2023-04-30T16:46:30.715Z,16.34
2023-04-30T16:48:59.967Z,16.31
2023-04-30T16:51:27.821Z,16.27
2023-04-30T16:53:55.368Z,16.24
2023-04-30T16:56:22.955Z,16.24
2023-04-30T16:58:50.877Z,16.23
2023-04-30T17:01:19.217Z,16.24
2023-04-30T17:03:47.373Z,16.24
2023-04-30T17:06:16.522Z,16.22
2023-04-30T17:08:44.185Z,16.22
2023-04-30T17:11:11.741Z,16.20
2023-04-30T17:13:39.323Z,16.17
2023-04-30T17:16:07.196Z,16.14
2023-04-30T17:18:34.845Z,16.12
2023-04-30T17:21:02.526Z,16.09
2023-04-30T17:23:31.914Z,16.06
2023-04-30T17:26:00.322Z,16.04
2023-04-30T17:28:27.836Z,16.01
2023-04-30T17:30:55.938Z,16.00
2023-04-30T17:33:25.244Z,15.99
2023-04-30T17:35:53.099Z,15.96
2023-04-30T17:38:20.658Z,15.94
2023-04-30T17:40:49.544Z,15.91
2023-04-30T17:43:17.098Z,15.90
2023-04-30T17:45:45.501Z,15.89
2023-04-30T17:48:13.112Z,15.85
2023-04-30T17:50:41.238Z,15.82
2023-04-30T17:53:08.816Z,15.79
2023-04-30T17:55:36.459Z,15.78
2023-04-30T17:58:06.847Z,15.76
2023-04-30T18:00:34.564Z,15.74
2023-04-30T18:03:02.230Z,15.71
2023-04-30T18:05:29.861Z,15.66
2023-04-30T18:07:57.406Z,15.62
2023-04-30T18:10:24.997Z,15.57
2023-04-30T18:12:53.674Z,15.51
2023-04-30T18:15:22.708Z,15.47
2023-04-30T18:17:50.394Z,15.42
2023-04-30T18:20:18.081Z,15.35
2023-04-30T18:22:45.695Z,15.30
2023-04-30T18:25:14.076Z,15.22
2023-04-30T18:27:41.885Z,15.17
2023-04-30T18:30:10.552Z,15.11
2023-04-30T18:32:39.776Z,15.07
2023-04-30T18:35:07.930Z,15.02
2023-04-30T18:37:35.798Z,14.96
2023-04-30T18:40:04.186Z,14.91
2023-04-30T18:42:31.764Z,14.86
2023-04-30T18:45:00.964Z,14.80
2023-04-30T18:47:28.559Z,14.76
2023-04-30T18:49:57.759Z,14.68
2023-04-30T18:52:25.604Z,14.63
2023-04-30T18:54:53.529Z,14.55
2023-04-30T18:57:21.180Z,14.48
2023-04-30T18:59:49.500Z,14.39
2023-04-30T19:02:17.134Z,14.32
2023-04-30T19:04:44.743Z,14.23
2023-04-30T19:07:14.201Z,14.14
2023-04-30T19:09:41.738Z,14.06
2023-04-30T19:12:10.267Z,13.98
2023-04-30T19:14:37.934Z,13.94
2023-04-30T19:17:05.715Z,13.86
2023-04-30T19:19:33.336Z,13.79
2023-04-30T19:22:01.118Z,13.75
2023-04-30T19:24:30.008Z,13.69
2023-04-30T19:26:57.654Z,13.63
2023-04-30T19:29:25.595Z,13.56
2023-04-30T19:31:54.029Z,13.51
2023-04-30T19:34:21.734Z,13.49
2023-04-30T19:36:49.818Z,13.44
2023-04-30T19:39:17.429Z,13.37
2023-04-30T19:41:46.326Z,13.32
2023-04-30T19:44:13.869Z,13.27
2023-04-30T19:46:42.381Z,13.20
2023-04-30T19:49:10.128Z,13.11
2023-04-30T19:51:37.688Z,13.07
2023-04-30T19:54:05.440Z,13.01
2023-04-30T19:56:33.199Z,12.95
2023-04-30T19:59:02.309Z,12.87
2023-04-30T20:01:30.093Z,12.81
2023-04-30T20:03:58.660Z,12.71
2023-04-30T20:06:28.835Z,12.65
2023-04-30T20:08:59.333Z,12.58
2023-04-30T20:11:30.692Z,12.52
2023-04-30T20:16:36.150Z,12.36
2023-04-30T20:19:05.542Z,12.30
2023-04-30T20:21:34.868Z,12.24
2023-04-30T20:24:04.581Z,12.20
2023-04-30T20:29:15.254Z,12.10
2023-04-30T20:31:48.354Z,12.03
2023-04-30T20:34:17.451Z,11.97
2023-04-30T20:36:48.299Z,11.93
2023-04-30T20:39:16.765Z,11.86
2023-04-30T20:41:48.261Z,11.85
2023-04-30T20:44:16.527Z,11.81
2023-04-30T20:46:45.850Z,11.79
2023-04-30T20:51:50.856Z,11.73
2023-04-30T20:54:19.024Z,11.71
2023-04-30T20:56:47.639Z,11.66
2023-04-30T20:59:16.796Z,11.62
2023-04-30T21:01:45.607Z,11.60
2023-04-30T21:04:14.006Z,11.55
2023-04-30T21:09:25.178Z,11.47
2023-04-30T21:11:53.855Z,11.45
2023-04-30T21:14:22.959Z,11.41
2023-04-30T21:16:51.466Z,11.40
2023-04-30T21:19:19.791Z,11.38
2023-04-30T21:21:48.159Z,11.33
2023-04-30T21:24:16.415Z,11.27
2023-04-30T21:26:46.616Z,11.24
2023-04-30T21:29:14.956Z,11.20
2023-04-30T21:31:43.121Z,11.19
2023-04-30T21:34:11.315Z,11.17
2023-04-30T21:36:39.669Z,11.13
2023-04-30T21:47:10.159Z,11.11
2023-04-30T21:49:38.437Z,11.05
2023-04-30T21:52:08.276Z,11.03
2023-04-30T21:54:36.353Z,11.00
2023-04-30T21:57:04.618Z,10.96
2023-04-30T21:59:35.312Z,10.87
2023-04-30T22:02:13.115Z,10.82
2023-04-30T22:04:53.518Z,10.77
2023-04-30T22:07:22.361Z,10.75
2023-04-30T22:09:51.732Z,10.77
2023-04-30T22:12:21.527Z,10.74
2023-04-30T22:14:51.686Z,10.74
2023-04-30T22:17:19.885Z,10.79
2023-04-30T22:19:47.923Z,10.83
2023-04-30T22:22:17.866Z,10.84
2023-04-30T22:24:46.442Z,10.81
2023-04-30T22:27:14.712Z,10.78
2023-04-30T22:29:43.500Z,10.71
2023-04-30T22:32:12.252Z,10.69
2023-04-30T22:34:42.020Z,10.72
2023-04-30T22:37:11.619Z,10.76
2023-04-30T22:39:41.324Z,10.78
2023-04-30T22:42:10.851Z,10.77
2023-04-30T22:44:38.981Z,10.73
2023-04-30T22:47:07.736Z,10.67
2023-04-30T22:49:37.805Z,10.65
2023-04-30T22:52:07.211Z,10.62
2023-04-30T22:54:35.837Z,10.61
2023-04-30T22:57:05.363Z,10.59
2023-04-30T22:59:33.364Z,10.57
2023-04-30T23:02:01.488Z,10.61
2023-04-30T23:04:32.457Z,10.66
2023-04-30T23:07:00.572Z,10.64
2023-04-30T23:09:28.854Z,10.62
2023-04-30T23:11:57.344Z,10.60
2023-04-30T23:14:27.049Z,10.58
2023-04-30T23:16:55.899Z,10.54
2023-04-30T23:19:23.952Z,10.52
2023-04-30T23:21:52.188Z,10.45
2023-04-30T23:24:20.254Z,10.41
2023-04-30T23:26:48.569Z,10.35
2023-04-30T23:29:16.540Z,10.30
2023-04-30T23:31:46.073Z,10.26
2023-04-30T23:34:14.174Z,10.22
2023-04-30T23:36:42.122Z,10.18
2023-04-30T23:39:10.401Z,10.14
2023-04-30T23:41:38.481Z,10.10
2023-04-30T23:44:06.844Z,10.04
2023-04-30T23:46:34.938Z,10.00
2023-04-30T23:49:04.433Z,10.01
2023-04-30T23:51:33.503Z,10.02
2023-04-30T23:54:02.238Z,10.01
2023-04-30T23:56:30.930Z,10.00
2023-04-30T23:58:58.805Z,9.97
